Time;durP1;ratioP1;P1;durP2;ratioP2;P2;SDS_P1;SDS_P2;PMS_P1;PMS_P2;Temp;Humidity;BMP_temperature;BMP_pressure;BME280_temperature;BME280_humidity;BME280_pressure;Samples;Min_cycle;Max_cycle;Signal;HPM_P1;HPM_P2
2023/07/03 00:00:17;;;;;;;16.23;9.98;;;;;;;;;;4393009;32;317790;-78
2023/07/03 00:02:49;;;;;;;17.50;10.20;;;;;;;;;;4401097;32;346273;-78
2023/07/03 00:05:17;;;;;;;14.13;8.95;;;;;;;;;;4391429;32;319078;-78
2023/07/03 00:07:46;;;;;;;15.57;9.27;;;;;;;;;;4403157;32;317647;-78
2023/07/03 00:10:14;;;;;;;20.77;9.43;;;;;;;;;;4391533;32;317973;-78
2023/07/03 00:12:41;;;;;;;14.20;9.82;;;;;;;;;;4403052;32;318135;-79
2023/07/03 00:15:11;;;;;;;12.50;10.27;;;;;;;;;;4390739;32;318099;-78
2023/07/03 00:17:44;;;;;;;16.05;10.50;;;;;;;;;;4401823;32;319028;-78
2023/07/03 00:20:14;;;;;;;12.00;10.70;;;;;;;;;;4391023;32;319060;-78
2023/07/03 00:22:41;;;;;;;13.62;11.10;;;;;;;;;;4401386;32;318908;-78
2023/07/03 00:25:09;;;;;;;23.90;11.35;;;;;;;;;;4391100;32;319021;-78
2023/07/03 00:27:37;;;;;;;13.62;11.55;;;;;;;;;;4401488;32;319022;-78
2023/07/03 00:30:05;;;;;;;16.83;10.38;;;;;;;;;;4390673;32;318896;-79
2023/07/03 00:32:33;;;;;;;20.02;11.05;;;;;;;;;;4402151;32;319284;-78
2023/07/03 00:35:02;;;;;;;18.23;11.57;;;;;;;;;;4402083;32;319035;-78
2023/07/03 00:37:31;;;;;;;16.70;11.75;;;;;;;;;;4389573;32;418135;-78
2023/07/03 00:39:58;;;;;;;12.23;10.60;;;;;;;;;;4400297;32;343890;-78
2023/07/03 00:42:26;;;;;;;16.12;12.88;;;;;;;;;;4392094;32;318829;-78
2023/07/03 00:44:54;;;;;;;17.98;13.13;;;;;;;;;;4401897;32;318819;-78
2023/07/03 00:47:22;;;;;;;11.00;9.90;;;;;;;;;;4391201;32;318971;-78
2023/07/03 00:49:50;;;;;;;16.02;11.95;;;;;;;;;;4400860;32;317656;-78
2023/07/03 00:52:19;;;;;;;14.68;12.37;;;;;;;;;;4391498;32;318846;-78
2023/07/03 00:54:47;;;;;;;16.35;11.18;;;;;;;;;;4401718;32;318949;-79
2023/07/03 00:57:17;;;;;;;12.45;9.95;;;;;;;;;;4390635;32;319191;-78
2023/07/03 00:59:44;;;;;;;15.73;11.85;;;;;;;;;;4401244;32;318291;-79
2023/07/03 01:02:15;;;;;;;15.60;11.93;;;;;;;;;;4392245;32;319070;-78
2023/07/03 01:04:49;;;;;;;14.75;11.77;;;;;;;;;;4400580;32;318918;-79
2023/07/03 01:07:21;;;;;;;12.55;11.05;;;;;;;;;;4390817;32;348335;-78
2023/07/03 01:09:53;;;;;;;14.77;12.52;;;;;;;;;;4400797;32;319950;-78
2023/07/03 01:12:23;;;;;;;16.27;10.90;;;;;;;;;;4391934;32;319224;-78
2023/07/03 01:14:51;;;;;;;19.75;11.10;;;;;;;;;;4400523;32;319029;-78
2023/07/03 01:17:19;;;;;;;13.73;11.32;;;;;;;;;;4390997;32;318992;-79
2023/07/03 01:19:49;;;;;;;13.70;11.23;;;;;;;;;;4401779;32;318938;-78
2023/07/03 01:22:24;;;;;;;15.73;11.40;;;;;;;;;;4390801;32;318953;-78
2023/07/03 01:24:56;;;;;;;14.43;11.35;;;;;;;;;;4400754;32;318827;-78
2023/07/03 01:27:27;;;;;;;16.05;11.55;;;;;;;;;;4390548;32;318970;-81
2023/07/03 01:29:55;;;;;;;17.83;12.10;;;;;;;;;;4398137;32;318867;-80
2023/07/03 01:32:27;;;;;;;16.75;10.65;;;;;;;;;;4390174;32;318836;-90
2023/07/03 01:34:56;;;;;;;20.95;11.73;;;;;;;;;;4400188;32;318951;-84
2023/07/03 01:37:27;;;;;;;14.85;11.10;;;;;;;;;;4390078;32;318968;-85
2023/07/03 01:39:57;;;;;;;14.43;11.77;;;;;;;;;;4400275;32;318944;-85
2023/07/03 01:42:27;;;;;;;19.90;11.77;;;;;;;;;;4391435;32;318647;-85
2023/07/03 01:44:54;;;;;;;17.12;11.35;;;;;;;;;;4398688;32;319175;-85
2023/07/03 01:47:22;;;;;;;14.90;11.75;;;;;;;;;;4390650;32;318887;-85
2023/07/03 01:49:50;;;;;;;17.67;12.00;;;;;;;;;;4400054;32;319071;-85
2023/07/03 01:52:20;;;;;;;15.20;11.88;;;;;;;;;;4388956;32;318856;-85
2023/07/03 01:54:56;;;;;;;14.10;11.82;;;;;;;;;;4399312;32;319094;-85
2023/07/03 01:57:34;;;;;;;12.13;10.32;;;;;;;;;;4391621;32;318940;-85
2023/07/03 02:00:06;;;;;;;16.83;12.50;;;;;;;;;;4399476;32;318880;-85
2023/07/03 02:02:36;;;;;;;20.67;12.10;;;;;;;;;;4388996;32;388200;-85
2023/07/03 02:05:07;;;;;;;14.68;11.30;;;;;;;;;;4387391;32;319040;-85
2023/07/03 02:07:36;;;;;;;12.27;10.13;;;;;;;;;;4401075;32;318775;-85
2023/07/03 02:10:05;;;;;;;17.45;11.68;;;;;;;;;;4389998;32;318944;-85
2023/07/03 02:12:34;;;;;;;20.60;12.77;;;;;;;;;;4401559;32;318708;-85
2023/07/03 02:15:04;;;;;;;15.60;11.85;;;;;;;;;;4401318;32;318733;-85
2023/07/03 02:17:31;;;;;;;18.92;11.38;;;;;;;;;;4388934;32;388847;-84
2023/07/03 02:19:59;;;;;;;17.80;12.43;;;;;;;;;;4401392;32;318672;-84
2023/07/03 02:22:26;;;;;;;19.05;11.90;;;;;;;;;;4389860;32;318880;-85
2023/07/03 02:24:54;;;;;;;16.20;12.23;;;;;;;;;;4401463;32;318957;-84
2023/07/03 02:27:21;;;;;;;18.02;11.75;;;;;;;;;;4388465;32;318733;-85
2023/07/03 02:29:51;;;;;;;18.33;11.75;;;;;;;;;;4400612;32;319023;-84
2023/07/03 02:32:18;;;;;;;22.40;12.37;;;;;;;;;;4388727;32;322617;-85
2023/07/03 02:34:46;;;;;;;16.48;11.23;;;;;;;;;;4401015;32;318809;-85
2023/07/03 02:37:13;;;;;;;15.50;11.52;;;;;;;;;;4388098;32;319137;-85
2023/07/03 02:39:41;;;;;;;14.32;11.75;;;;;;;;;;4401289;32;319240;-85
2023/07/03 02:42:08;;;;;;;19.33;12.50;;;;;;;;;;4389016;32;318977;-85
2023/07/03 02:44:36;;;;;;;18.08;11.82;;;;;;;;;;4400105;32;318942;-84
2023/07/03 02:47:06;;;;;;;17.70;11.80;;;;;;;;;;4389817;32;318906;-85
2023/07/03 02:49:33;;;;;;;20.88;12.90;;;;;;;;;;4399770;32;318948;-84
2023/07/03 02:52:01;;;;;;;19.52;12.95;;;;;;;;;;4400591;32;318906;-85
2023/07/03 02:54:28;;;;;;;16.08;12.43;;;;;;;;;;4387799;32;389051;-85
2023/07/03 02:56:56;;;;;;;16.00;12.20;;;;;;;;;;4401088;32;318887;-84
2023/07/03 02:59:23;;;;;;;19.30;12.40;;;;;;;;;;4388676;32;319118;-85
2023/07/03 03:01:51;;;;;;;21.92;13.52;;;;;;;;;;4400643;32;319105;-84
2023/07/03 03:04:20;;;;;;;20.25;12.27;;;;;;;;;;4389805;32;319004;-85
2023/07/03 03:06:47;;;;;;;15.60;12.43;;;;;;;;;;4401218;32;327202;-84
2023/07/03 03:09:14;;;;;;;19.27;10.88;;;;;;;;;;4393718;32;318802;-85
2023/07/03 03:11:42;;;;;;;14.50;11.15;;;;;;;;;;4403765;32;319323;-84
2023/07/03 03:14:09;;;;;;;16.40;10.73;;;;;;;;;;4390990;32;319104;-85
2023/07/03 03:16:37;;;;;;;25.60;10.68;;;;;;;;;;4400934;32;318867;-84
2023/07/03 03:19:05;;;;;;;14.60;10.10;;;;;;;;;;4392652;32;319197;-85
2023/07/03 03:21:34;;;;;;;16.58;9.40;;;;;;;;;;4402417;32;319010;-85
2023/07/03 03:24:02;;;;;;;11.55;10.00;;;;;;;;;;4401082;32;317865;-85
2023/07/03 03:26:30;;;;;;;13.52;9.98;;;;;;;;;;4389419;32;417714;-84
2023/07/03 03:28:58;;;;;;;17.73;9.85;;;;;;;;;;4403426;32;317924;-84
2023/07/03 03:31:25;;;;;;;18.00;10.10;;;;;;;;;;4393411;32;317759;-85
2023/07/03 03:33:53;;;;;;;12.00;8.38;;;;;;;;;;4402908;32;318856;-84
2023/07/03 03:36:20;;;;;;;15.68;8.70;;;;;;;;;;4390243;32;317750;-84
2023/07/03 03:38:49;;;;;;;13.40;10.07;;;;;;;;;;4403188;32;317778;-84
2023/07/03 03:41:17;;;;;;;15.32;8.93;;;;;;;;;;4392453;32;318776;-84
2023/07/03 03:43:47;;;;;;;11.70;8.80;;;;;;;;;;4401533;32;317862;-84
2023/07/03 03:46:14;;;;;;;12.52;9.55;;;;;;;;;;4392051;32;317751;-85
2023/07/03 03:48:42;;;;;;;11.05;9.80;;;;;;;;;;4403220;32;318088;-84
2023/07/03 03:51:09;;;;;;;14.43;11.32;;;;;;;;;;4391982;32;317820;-85
2023/07/03 03:53:37;;;;;;;17.20;10.77;;;;;;;;;;4402932;32;319046;-84
2023/07/03 03:56:06;;;;;;;11.48;10.25;;;;;;;;;;4390216;32;402911;-85
2023/07/03 03:58:33;;;;;;;18.92;11.20;;;;;;;;;;4401544;32;318917;-85
2023/07/03 04:01:01;;;;;;;20.08;12.13;;;;;;;;;;4402783;32;319029;-84
2023/07/03 04:03:28;;;;;;;22.73;13.60;;;;;;;;;;4387432;32;418008;-84
2023/07/03 04:05:56;;;;;;;21.10;12.37;;;;;;;;;;4399625;32;318828;-84
2023/07/03 04:08:23;;;;;;;21.58;12.40;;;;;;;;;;4391666;32;318969;-84
2023/07/03 04:10:51;;;;;;;26.85;14.60;;;;;;;;;;4402475;32;319164;-84
2023/07/03 04:13:20;;;;;;;23.05;13.70;;;;;;;;;;4391489;32;318918;-84
2023/07/03 04:15:57;;;;;;;17.12;14.10;;;;;;;;;;4400045;32;319035;-84
2023/07/03 04:18:26;;;;;;;18.87;12.48;;;;;;;;;;4391712;32;318788;-84
2023/07/03 04:20:53;;;;;;;14.60;11.93;;;;;;;;;;4401625;32;358310;-84
2023/07/03 04:23:21;;;;;;;19.73;10.63;;;;;;;;;;4392446;32;319214;-85
2023/07/03 04:25:49;;;;;;;16.77;10.38;;;;;;;;;;4401316;32;319031;-85
2023/07/03 04:28:18;;;;;;;17.20;10.55;;;;;;;;;;4391503;32;319152;-85
2023/07/03 04:30:47;;;;;;;13.55;10.30;;;;;;;;;;4402430;32;318974;-84
2023/07/03 04:33:15;;;;;;;20.20;10.20;;;;;;;;;;4390975;32;318961;-84
2023/07/03 04:35:42;;;;;;;15.15;10.18;;;;;;;;;;4402028;32;318710;-84
2023/07/03 04:38:10;;;;;;;15.85;11.65;;;;;;;;;;4391625;32;327785;-85
2023/07/03 04:40:38;;;;;;;19.10;11.10;;;;;;;;;;4402096;32;318978;-84
2023/07/03 04:43:08;;;;;;;17.05;11.68;;;;;;;;;;4392048;32;318918;-85
2023/07/03 04:45:40;;;;;;;17.90;10.65;;;;;;;;;;4401560;32;318948;-84
2023/07/03 04:48:09;;;;;;;12.48;10.48;;;;;;;;;;4391879;32;320486;-84
2023/07/03 04:50:37;;;;;;;16.42;11.65;;;;;;;;;;4401605;32;319332;-84
2023/07/03 04:53:04;;;;;;;27.17;12.60;;;;;;;;;;4388644;32;353514;-84
2023/07/03 04:55:32;;;;;;;17.25;11.43;;;;;;;;;;4401120;32;318801;-83
2023/07/03 04:58:00;;;;;;;16.85;12.80;;;;;;;;;;4401012;32;318756;-84
2023/07/03 05:00:28;;;;;;;20.50;11.52;;;;;;;;;;4387431;32;418160;-84
2023/07/03 05:02:59;;;;;;;21.30;12.35;;;;;;;;;;4401612;32;318805;-84
2023/07/03 05:05:28;;;;;;;13.90;10.95;;;;;;;;;;4391062;32;318928;-84
2023/07/03 05:07:56;;;;;;;19.15;12.45;;;;;;;;;;4401992;32;318871;-84
2023/07/03 05:10:24;;;;;;;16.92;12.43;;;;;;;;;;4387944;32;322067;-84
2023/07/03 05:12:52;;;;;;;14.32;12.00;;;;;;;;;;4399126;32;318924;-84
2023/07/03 05:15:24;;;;;;;16.60;13.25;;;;;;;;;;4389460;32;319085;-84
2023/07/03 05:17:52;;;;;;;16.37;13.02;;;;;;;;;;4401141;32;318855;-83
2023/07/03 05:20:22;;;;;;;18.87;13.65;;;;;;;;;;4389810;32;318994;-84
2023/07/03 05:22:55;;;;;;;19.08;13.82;;;;;;;;;;4400017;32;318685;-85
2023/07/03 05:25:23;;;;;;;21.65;15.65;;;;;;;;;;4390035;32;318957;-84
2023/07/03 05:27:50;;;;;;;16.90;13.80;;;;;;;;;;4400905;32;318963;-84
2023/07/03 05:30:18;;;;;;;16.02;14.10;;;;;;;;;;4389117;32;318916;-84
2023/07/03 05:32:46;;;;;;;21.55;13.60;;;;;;;;;;4400931;32;319216;-84
2023/07/03 05:35:14;;;;;;;17.02;15.27;;;;;;;;;;4389092;32;319091;-83
2023/07/03 05:37:42;;;;;;;20.80;15.48;;;;;;;;;;4400166;32;318968;-84
2023/07/03 05:40:11;;;;;;;26.15;15.95;;;;;;;;;;4389668;32;319081;-84
2023/07/03 05:42:39;;;;;;;17.67;14.07;;;;;;;;;;4401116;32;318967;-83
2023/07/03 05:45:08;;;;;;;19.80;15.65;;;;;;;;;;4389213;32;351859;-84
2023/07/03 05:47:35;;;;;;;21.60;14.98;;;;;;;;;;4399978;32;318722;-84
2023/07/03 05:50:03;;;;;;;22.00;15.57;;;;;;;;;;4390095;32;318902;-85
2023/07/03 05:52:33;;;;;;;25.83;13.98;;;;;;;;;;4400832;32;318826;-84
2023/07/03 05:55:01;;;;;;;19.40;16.17;;;;;;;;;;4400462;32;318777;-83
2023/07/03 05:57:30;;;;;;;18.58;15.10;;;;;;;;;;4387679;32;388575;-83
2023/07/03 05:59:59;;;;;;;19.12;15.13;;;;;;;;;;4400239;32;318798;-83
2023/07/03 06:02:26;;;;;;;18.02;15.75;;;;;;;;;;4388983;32;319055;-83
2023/07/03 06:04:54;;;;;;;17.55;15.70;;;;;;;;;;4401348;32;318893;-83
2023/07/03 06:07:22;;;;;;;22.83;16.05;;;;;;;;;;4389293;32;324769;-83
2023/07/03 06:09:49;;;;;;;29.67;17.20;;;;;;;;;;4400090;32;318795;-82
2023/07/03 06:12:17;;;;;;;20.75;16.25;;;;;;;;;;4388576;32;318987;-83
2023/07/03 06:14:46;;;;;;;23.23;15.85;;;;;;;;;;4400297;32;342984;-83
2023/07/03 06:17:13;;;;;;;19.53;16.63;;;;;;;;;;4388231;32;318715;-83
2023/07/03 06:19:40;;;;;;;19.25;15.77;;;;;;;;;;4401139;32;319093;-83
2023/07/03 06:22:08;;;;;;;22.23;17.33;;;;;;;;;;4390661;32;318609;-83
2023/07/03 06:24:36;;;;;;;29.87;15.90;;;;;;;;;;4400231;32;317605;-83
2023/07/03 06:27:03;;;;;;;27.77;17.10;;;;;;;;;;4390823;32;318888;-84
2023/07/03 06:29:31;;;;;;;26.12;17.02;;;;;;;;;;4399395;32;318919;-82
2023/07/03 06:32:00;;;;;;;23.52;16.33;;;;;;;;;;4400468;32;318832;-84
2023/07/03 06:34:28;;;;;;;26.15;18.58;;;;;;;;;;4389203;32;322440;-83
2023/07/03 06:36:55;;;;;;;23.00;18.12;;;;;;;;;;4399666;32;318800;-81
2023/07/03 06:39:23;;;;;;;25.27;17.35;;;;;;;;;;4389185;32;319042;-87
2023/07/03 06:41:51;;;;;;;20.00;16.50;;;;;;;;;;4402718;32;318725;-89
2023/07/03 06:44:21;;;;;;;24.65;18.05;;;;;;;;;;4391866;32;318551;-84
2023/07/03 06:46:50;;;;;;;25.33;17.10;;;;;;;;;;4403275;32;318889;-86
2023/07/03 06:49:22;;;;;;;25.02;17.10;;;;;;;;;;4393829;32;318497;-86
2023/07/03 06:51:50;;;;;;;19.10;16.77;;;;;;;;;;4403588;32;318761;-89
2023/07/03 06:54:17;;;;;;;21.08;18.90;;;;;;;;;;4393884;32;318790;-87
2023/07/03 06:56:45;;;;;;;26.73;18.67;;;;;;;;;;4403655;32;318565;-87
2023/07/03 06:59:14;;;;;;;26.12;18.17;;;;;;;;;;4392108;32;318674;-86
2023/07/03 07:01:43;;;;;;;22.02;16.48;;;;;;;;;;4402488;32;318756;-88
2023/07/03 07:04:10;;;;;;;24.80;18.15;;;;;;;;;;4391787;32;318737;-93
2023/07/03 07:06:40;;;;;;;21.37;17.10;;;;;;;;;;4402324;32;318874;-89
2023/07/03 07:09:10;;;;;;;22.52;18.02;;;;;;;;;;4392105;32;318918;-87
2023/07/03 07:11:38;;;;;;;21.25;19.05;;;;;;;;;;4403030;32;318672;-87
2023/07/03 07:14:07;;;;;;;29.15;19.00;;;;;;;;;;4391817;32;318844;-87
2023/07/03 07:16:37;;;;;;;22.58;17.87;;;;;;;;;;4401789;32;332432;-89
2023/07/03 07:19:07;;;;;;;22.15;16.85;;;;;;;;;;4391404;32;319061;-92
2023/07/03 07:21:37;;;;;;;21.40;17.73;;;;;;;;;;4401533;32;318648;-83
2023/07/03 07:24:16;;;;;;;18.73;16.77;;;;;;;;;;4393725;32;318711;-84
2023/07/03 07:26:43;;;;;;;21.92;16.35;;;;;;;;;;4403634;32;318866;-83
2023/07/03 07:29:11;;;;;;;17.77;15.98;;;;;;;;;;4392372;32;319063;-83
2023/07/03 07:31:39;;;;;;;23.98;20.02;;;;;;;;;;4402539;32;318704;-82
2023/07/03 07:34:08;;;;;;;24.02;17.25;;;;;;;;;;4392111;32;337044;-82
2023/07/03 07:36:36;;;;;;;16.20;13.82;;;;;;;;;;4402967;32;319148;-82
2023/07/03 07:39:04;;;;;;;21.45;16.77;;;;;;;;;;4393324;32;318882;-83
2023/07/03 07:41:33;;;;;;;18.02;16.10;;;;;;;;;;4401705;32;318969;-95
2023/07/03 07:44:01;;;;;;;18.55;14.40;;;;;;;;;;4402355;32;318906;-83
2023/07/03 07:46:30;;;;;;;16.62;14.82;;;;;;;;;;4391471;32;388882;-84
2023/07/03 07:48:59;;;;;;;16.73;14.45;;;;;;;;;;4402793;32;319189;-82
2023/07/03 07:51:27;;;;;;;21.87;13.98;;;;;;;;;;4391101;32;318898;-82
2023/07/03 07:53:55;;;;;;;15.95;13.50;;;;;;;;;;4402723;32;318887;-81
2023/07/03 07:56:24;;;;;;;14.73;11.70;;;;;;;;;;4390647;32;318826;-82
2023/07/03 07:58:53;;;;;;;14.05;12.32;;;;;;;;;;4401874;32;318777;-84
2023/07/03 08:01:21;;;;;;;15.80;12.40;;;;;;;;;;4391539;32;318914;-84
2023/07/03 08:03:48;;;;;;;19.77;13.62;;;;;;;;;;4400853;32;318956;-82
2023/07/03 08:06:16;;;;;;;18.92;13.55;;;;;;;;;;4390664;32;318820;-82
2023/07/03 08:08:44;;;;;;;14.23;11.20;;;;;;;;;;4402207;32;318831;-81
2023/07/03 08:11:12;;;;;;;11.88;10.13;;;;;;;;;;4391276;32;319024;-81
2023/07/03 08:13:41;;;;;;;14.63;11.82;;;;;;;;;;4402515;32;318697;-84
2023/07/03 08:16:11;;;;;;;14.27;11.00;;;;;;;;;;4390080;32;342792;-82
2023/07/03 08:18:39;;;;;;;11.57;10.18;;;;;;;;;;4402368;32;318789;-85
2023/07/03 08:21:07;;;;;;;14.93;9.77;;;;;;;;;;4391866;32;318859;-83
2023/07/03 08:23:34;;;;;;;11.70;10.50;;;;;;;;;;4402033;32;317564;-81
2023/07/03 08:26:01;;;;;;;11.32;9.30;;;;;;;;;;4400598;32;318936;-82
2023/07/03 08:28:30;;;;;;;13.45;10.25;;;;;;;;;;4388793;32;417144;-82
2023/07/03 08:30:58;;;;;;;11.23;9.38;;;;;;;;;;4402299;32;318855;-82
2023/07/03 08:33:27;;;;;;;12.10;9.18;;;;;;;;;;4392561;32;317700;-82
2023/07/03 08:35:54;;;;;;;16.42;10.52;;;;;;;;;;4402600;32;317876;-82
2023/07/03 08:38:22;;;;;;;13.10;10.82;;;;;;;;;;4390680;32;318831;-82
2023/07/03 08:40:57;;;;;;;12.63;9.73;;;;;;;;;;4401860;32;318801;-82
2023/07/03 08:43:24;;;;;;;11.88;10.20;;;;;;;;;;4390699;32;317634;-82
2023/07/03 08:45:52;;;;;;;14.10;9.50;;;;;;;;;;4401375;32;319108;-83
2023/07/03 08:48:23;;;;;;;17.27;10.57;;;;;;;;;;4392679;32;317808;-84
2023/07/03 08:50:57;;;;;;;16.30;9.55;;;;;;;;;;4401454;32;339048;-86
2023/07/03 08:53:30;;;;;;;11.43;10.23;;;;;;;;;;4391166;32;317824;-95
2023/07/03 08:56:00;;;;;;;12.57;9.63;;;;;;;;;;4403560;32;318707;-84
2023/07/03 08:58:28;;;;;;;11.35;8.70;;;;;;;;;;4389376;32;417166;-88
2023/07/03 09:01:04;;;;;;;10.93;8.30;;;;;;;;;;4402065;32;317529;-87
2023/07/03 09:03:40;;;;;;;14.05;9.45;;;;;;;;;;4387818;32;416867;-86
2023/07/03 09:06:15;;;;;;;14.00;7.78;;;;;;;;;;4390670;32;354214;-84
2023/07/03 09:08:50;;;;;;;8.93;8.02;;;;;;;;;;4401486;32;317942;-88
2023/07/03 09:11:20;;;;;;;13.77;8.57;;;;;;;;;;4389690;32;316808;-88
2023/07/03 09:13:51;;;;;;;11.02;7.82;;;;;;;;;;4402055;32;316451;-86
2023/07/03 09:16:22;;;;;;;9.65;7.25;;;;;;;;;;4390744;32;318147;-87
2023/07/03 09:18:53;;;;;;;8.73;7.75;;;;;;;;;;4401831;32;316520;-86
2023/07/03 09:21:24;;;;;;;9.40;7.60;;;;;;;;;;4390415;32;316666;-85
2023/07/03 09:23:59;;;;;;;7.68;6.47;;;;;;;;;;4400403;32;316517;-88
2023/07/03 09:26:32;;;;;;;8.27;6.70;;;;;;;;;;4391004;32;316742;-89
2023/07/03 09:29:00;;;;;;;9.20;7.62;;;;;;;;;;4400962;32;316641;-88
2023/07/03 09:31:28;;;;;;;10.30;7.35;;;;;;;;;;4388865;32;325171;-83
2023/07/03 09:33:56;;;;;;;9.15;7.20;;;;;;;;;;4398934;32;354714;-87
2023/07/03 09:36:30;;;;;;;8.07;6.93;;;;;;;;;;4389577;32;316879;-86
2023/07/03 09:38:58;;;;;;;8.43;6.75;;;;;;;;;;4400511;32;316811;-86
2023/07/03 09:41:30;;;;;;;11.85;6.40;;;;;;;;;;4388688;32;316765;-86
2023/07/03 09:43:58;;;;;;;6.87;5.68;;;;;;;;;;4400717;32;317817;-87
2023/07/03 09:46:30;;;;;;;8.57;6.37;;;;;;;;;;4389627;32;325152;-86
2023/07/03 09:48:58;;;;;;;10.13;6.75;;;;;;;;;;4401394;32;316680;-86
2023/07/03 09:51:29;;;;;;;8.30;6.50;;;;;;;;;;4389706;32;317668;-86
2023/07/03 09:53:59;;;;;;;7.20;6.20;;;;;;;;;;4400585;32;316379;-87
2023/07/03 09:56:31;;;;;;;9.55;6.75;;;;;;;;;;4390958;32;316743;-91
2023/07/03 09:59:03;;;;;;;9.10;6.75;;;;;;;;;;4400755;32;316708;-95
2023/07/03 10:01:32;;;;;;;7.62;6.57;;;;;;;;;;4387977;32;416121;-84
2023/07/03 10:04:05;;;;;;;6.95;6.15;;;;;;;;;;4399072;32;316825;-84
2023/07/03 10:06:36;;;;;;;7.32;6.28;;;;;;;;;;4387251;32;419168;-95
2023/07/03 10:09:06;;;;;;;12.05;6.43;;;;;;;;;;4391389;32;316744;-86
2023/07/03 10:11:42;;;;;;;7.28;6.07;;;;;;;;;;4401275;32;317633;-84
2023/07/03 10:14:15;;;;;;;12.30;6.55;;;;;;;;;;4390480;32;316716;-84
2023/07/03 10:16:44;;;;;;;9.05;6.37;;;;;;;;;;4403925;32;317743;-83
2023/07/03 10:19:12;;;;;;;7.37;6.18;;;;;;;;;;4392026;32;316868;-83
2023/07/03 10:21:43;;;;;;;10.20;6.10;;;;;;;;;;4402603;32;316445;-89
2023/07/03 10:24:13;;;;;;;9.07;6.13;;;;;;;;;;4392917;32;340085;-88
2023/07/03 10:26:50;;;;;;;6.80;5.35;;;;;;;;;;4405353;32;316497;-94
2023/07/03 10:29:23;;;;;;;6.87;5.45;;;;;;;;;;4395046;32;316415;-89
2023/07/03 10:31:54;;;;;;;6.32;5.68;;;;;;;;;;4403493;32;316570;-89
2023/07/03 10:34:25;;;;;;;10.93;5.53;;;;;;;;;;4391933;32;316648;-93
2023/07/03 10:36:59;;;;;;;9.70;5.95;;;;;;;;;;4402906;32;317738;-80
2023/07/03 10:39:36;;;;;;;7.80;5.78;;;;;;;;;;4392667;32;316564;-77
2023/07/03 10:42:07;;;;;;;11.27;5.87;;;;;;;;;;4392119;32;316924;-78
2023/07/03 10:44:38;;;;;;;10.23;5.80;;;;;;;;;;4403204;32;317982;-78
2023/07/03 10:47:15;;;;;;;9.82;6.20;;;;;;;;;;4393152;32;317904;-77
2023/07/03 10:49:43;;;;;;;6.20;5.45;;;;;;;;;;4402216;32;316749;-77
2023/07/03 10:52:20;;;;;;;8.40;5.80;;;;;;;;;;4393414;32;317021;-77
2023/07/03 10:54:56;;;;;;;6.22;5.35;;;;;;;;;;4403211;32;316641;-77
2023/07/03 10:57:35;;;;;;;10.38;6.55;;;;;;;;;;4393668;32;316761;-77
2023/07/03 11:00:07;;;;;;;9.18;6.30;;;;;;;;;;4403420;32;317881;-77
2023/07/03 11:02:43;;;;;;;7.07;5.90;;;;;;;;;;4390969;32;416509;-76
2023/07/03 11:05:17;;;;;;;6.57;5.25;;;;;;;;;;4393082;32;317021;-79
2023/07/03 11:07:54;;;;;;;8.15;5.65;;;;;;;;;;4403987;32;316921;-78
2023/07/03 11:10:31;;;;;;;8.27;6.47;;;;;;;;;;4391373;32;316771;-79
2023/07/03 11:13:08;;;;;;;6.18;5.35;;;;;;;;;;4404110;32;316630;-78
2023/07/03 11:15:45;;;;;;;7.03;6.03;;;;;;;;;;4390559;32;416704;-78
2023/07/03 11:18:39;;;;;;;6.90;5.97;;;;;;;;;;4390738;32;328717;-78
2023/07/03 11:21:11;;;;;;;7.28;5.60;;;;;;;;;;4389123;32;344823;-78
2023/07/03 11:23:50;;;;;;;7.55;5.50;;;;;;;;;;4402686;32;316657;-78
2023/07/03 11:26:24;;;;;;;8.38;5.80;;;;;;;;;;4392612;32;316642;-78
2023/07/03 11:28:54;;;;;;;5.70;4.80;;;;;;;;;;4403411;32;316568;-78
2023/07/03 11:31:24;;;;;;;7.32;5.37;;;;;;;;;;4392139;32;316668;-78
2023/07/03 11:33:52;;;;;;;6.20;5.60;;;;;;;;;;4401768;32;316955;-78
2023/07/03 11:36:40;;;;;;;7.23;5.83;;;;;;;;;;4388637;32;316817;-77
2023/07/03 11:39:20;;;;;;;13.73;5.57;;;;;;;;;;4391443;32;316835;-78
2023/07/03 11:41:51;;;;;;;7.82;5.32;;;;;;;;;;4401813;32;318200;-77
2023/07/03 11:44:30;;;;;;;7.40;5.37;;;;;;;;;;4393232;32;316647;-78
2023/07/03 11:47:00;;;;;;;8.05;5.75;;;;;;;;;;4401689;32;316670;-78
2023/07/03 11:49:32;;;;;;;11.43;6.28;;;;;;;;;;4391450;32;325564;-78
2023/07/03 11:52:01;;;;;;;9.15;5.22;;;;;;;;;;4402741;32;317865;-78
2023/07/03 11:54:33;;;;;;;18.52;5.43;;;;;;;;;;4389608;32;415984;-78
2023/07/03 11:57:06;;;;;;;5.87;4.60;;;;;;;;;;4402524;32;317948;-78
2023/07/03 11:59:37;;;;;;;5.25;4.10;;;;;;;;;;4388270;32;416039;-78
2023/07/03 12:02:44;;;;;;;5.32;4.82;;;;;;;;;;4392834;32;316858;-79
2023/07/03 12:05:12;;;;;;;7.00;4.57;;;;;;;;;;4391756;32;316771;-78
2023/07/03 12:07:50;;;;;;;8.43;4.95;;;;;;;;;;4401840;32;316640;-78
2023/07/03 12:10:42;;;;;;;4.93;4.40;;;;;;;;;;4392462;32;316858;-78
2023/07/03 12:13:33;;;;;;;6.80;4.47;;;;;;;;;;4390581;32;316833;-78
2023/07/03 12:16:02;;;;;;;6.70;4.50;;;;;;;;;;4401853;32;316724;-78
2023/07/03 12:18:30;;;;;;;6.00;4.32;;;;;;;;;;4387887;32;417121;-78
2023/07/03 12:20:59;;;;;;;5.37;4.57;;;;;;;;;;4402420;32;316887;-78
2023/07/03 12:23:37;;;;;;;5.40;4.22;;;;;;;;;;4391848;32;316976;-78
2023/07/03 12:26:08;;;;;;;6.37;4.05;;;;;;;;;;4388575;32;355143;-78
2023/07/03 12:28:36;;;;;;;5.90;4.53;;;;;;;;;;4402345;32;316968;-79
2023/07/03 12:31:12;;;;;;;7.55;4.62;;;;;;;;;;4390410;32;328376;-79
2023/07/03 12:33:49;;;;;;;5.70;5.10;;;;;;;;;;4401902;32;316699;-78
2023/07/03 12:36:22;;;;;;;7.87;4.25;;;;;;;;;;4392165;32;316800;-78
2023/07/03 12:38:50;;;;;;;7.45;4.00;;;;;;;;;;4401559;32;316678;-78
2023/07/03 12:41:27;;;;;;;5.60;4.40;;;;;;;;;;4391429;32;316812;-78
2023/07/03 12:43:54;;;;;;;6.40;4.75;;;;;;;;;;4402055;32;316854;-78
2023/07/03 12:46:30;;;;;;;6.85;4.60;;;;;;;;;;4391124;32;334983;-78
2023/07/03 12:49:09;;;;;;;5.47;4.20;;;;;;;;;;4401099;32;316664;-78
2023/07/03 12:51:42;;;;;;;6.37;4.60;;;;;;;;;;4388300;32;416440;-78
2023/07/03 12:54:12;;;;;;;5.82;4.65;;;;;;;;;;4389476;32;316727;-78
2023/07/03 12:56:42;;;;;;;9.18;4.70;;;;;;;;;;4401310;32;316908;-78
2023/07/03 12:59:12;;;;;;;4.37;3.40;;;;;;;;;;4391082;32;316679;-78
2023/07/03 13:01:40;;;;;;;4.40;3.75;;;;;;;;;;4401044;32;316783;-78
2023/07/03 13:04:09;;;;;;;4.97;4.47;;;;;;;;;;4392148;32;316752;-78
2023/07/03 13:06:36;;;;;;;6.07;3.80;;;;;;;;;;4401283;32;316697;-78
2023/07/03 13:09:05;;;;;;;6.20;4.35;;;;;;;;;;4386832;32;317111;-79
2023/07/03 13:11:35;;;;;;;9.13;4.70;;;;;;;;;;4399536;32;335171;-78
2023/07/03 13:14:11;;;;;;;4.70;4.10;;;;;;;;;;4399382;32;317079;-80
2023/07/03 13:16:38;;;;;;;4.35;3.95;;;;;;;;;;4387106;32;416192;-78
2023/07/03 13:19:06;;;;;;;7.25;4.25;;;;;;;;;;4390846;32;316644;-78
2023/07/03 13:21:36;;;;;;;5.03;4.28;;;;;;;;;;4401206;32;316737;-78
2023/07/03 13:24:09;;;;;;;7.28;3.95;;;;;;;;;;4393659;32;317022;-80
2023/07/03 13:26:37;;;;;;;6.45;4.53;;;;;;;;;;4401148;32;316826;-78
2023/07/03 13:29:06;;;;;;;5.68;4.43;;;;;;;;;;4390718;32;316663;-79
2023/07/03 13:31:36;;;;;;;6.47;3.80;;;;;;;;;;4400697;32;316475;-78
2023/07/03 13:34:08;;;;;;;7.00;4.28;;;;;;;;;;4393026;32;316752;-79
2023/07/03 13:36:38;;;;;;;4.65;4.25;;;;;;;;;;4401284;32;316620;-78
2023/07/03 13:39:10;;;;;;;4.55;3.75;;;;;;;;;;4390325;32;316689;-78
2023/07/03 13:41:38;;;;;;;9.45;4.10;;;;;;;;;;4401664;32;316705;-78
2023/07/03 13:44:08;;;;;;;5.05;4.18;;;;;;;;;;4389518;32;316736;-79
2023/07/03 13:46:37;;;;;;;6.87;4.18;;;;;;;;;;4400525;32;316728;-78
2023/07/03 13:49:06;;;;;;;13.93;5.15;;;;;;;;;;4387678;32;355214;-79
2023/07/03 13:51:33;;;;;;;6.70;4.00;;;;;;;;;;4399447;32;317493;-78
2023/07/03 13:54:01;;;;;;;5.90;4.10;;;;;;;;;;4400371;32;316653;-78
2023/07/03 13:56:29;;;;;;;4.30;3.87;;;;;;;;;;4387606;32;416224;-78
2023/07/03 13:58:56;;;;;;;7.00;4.50;;;;;;;;;;4399297;32;316628;-78
2023/07/03 14:01:23;;;;;;;6.18;3.70;;;;;;;;;;4390625;32;316864;-76
2023/07/03 14:03:52;;;;;;;10.07;4.82;;;;;;;;;;4401071;32;316721;-76
2023/07/03 14:06:21;;;;;;;6.50;4.03;;;;;;;;;;4387850;32;318096;-76
2023/07/03 14:08:48;;;;;;;4.30;3.90;;;;;;;;;;4400411;32;316758;-76
2023/07/03 14:11:16;;;;;;;5.73;4.27;;;;;;;;;;4388789;32;351795;-77
2023/07/03 14:13:45;;;;;;;5.72;4.30;;;;;;;;;;4400289;32;316666;-76
2023/07/03 14:16:13;;;;;;;7.20;4.12;;;;;;;;;;4389047;32;317159;-81
2023/07/03 14:18:41;;;;;;;4.10;3.62;;;;;;;;;;4401249;32;317068;-81
2023/07/03 14:21:13;;;;;;;7.12;3.83;;;;;;;;;;4391113;32;316900;-81
2023/07/03 14:23:41;;;;;;;4.68;3.85;;;;;;;;;;4400827;32;316591;-82
2023/07/03 14:26:11;;;;;;;6.15;4.22;;;;;;;;;;4389634;32;316722;-81
2023/07/03 14:28:40;;;;;;;5.93;4.03;;;;;;;;;;4400461;32;316574;-82